createdAt,value
2023-02-17T00:04:15.767Z,101480.88
2023-02-17T00:09:17.652Z,101459.66
2023-02-17T00:14:19.565Z,101482.63
2023-02-17T00:19:25.290Z,101479.16
2023-02-17T00:24:29.657Z,101479.16
2023-02-17T00:29:32.018Z,101475.56
2023-02-17T00:34:33.935Z,101466.88
2023-02-17T00:39:35.915Z,101467.69
2023-02-17T00:44:37.660Z,101461.47
2023-02-17T00:49:39.324Z,101452.63
2023-02-17T00:54:42.255Z,101452.56
2023-02-17T00:59:44.208Z,101449.94
2023-02-17T01:04:46.264Z,101438.31
2023-02-17T01:09:48.387Z,101426.91
2023-02-17T01:14:50.569Z,101428.56
2023-02-17T01:19:52.539Z,101439.41
2023-02-17T01:24:54.460Z,101417.94
2023-02-17T01:29:56.391Z,101418.00
2023-02-17T01:34:58.419Z,101423.38
2023-02-17T01:40:00.259Z,101403.88
2023-02-17T01:45:20.028Z,101396.84
2023-02-17T01:50:26.153Z,101398.53
2023-02-17T01:55:28.510Z,101399.38
2023-02-17T02:00:34.023Z,101397.81
2023-02-17T02:05:37.828Z,101391.53
2023-02-17T02:10:40.180Z,101387.13
2023-02-17T02:15:52.813Z,101375.75
2023-02-17T02:21:07.688Z,101371.06
2023-02-17T02:26:15.593Z,101381.78
2023-02-17T02:31:36.277Z,101360.56
2023-02-17T02:36:42.036Z,101384.41
2023-02-17T02:41:55.133Z,101384.50
2023-02-17T02:46:58.820Z,101373.81
2023-02-17T02:52:22.362Z,101378.19
2023-02-17T02:57:50.115Z,101381.88
2023-02-17T03:02:58.639Z,101385.34
2023-02-17T03:08:15.939Z,101379.00
2023-02-17T03:13:18.956Z,101376.47
2023-02-17T03:18:20.867Z,101359.56
2023-02-17T03:23:22.802Z,101343.66
2023-02-17T03:28:25.192Z,101345.53
2023-02-17T03:33:26.902Z,101345.41
2023-02-17T03:38:28.781Z,101337.59
2023-02-17T03:43:30.477Z,101336.72
2023-02-17T03:48:32.531Z,101341.16
2023-02-17T03:53:34.427Z,101334.72
2023-02-17T03:58:36.228Z,101331.19
2023-02-17T04:03:38.618Z,101340.97
2023-02-17T04:08:41.038Z,101354.25
2023-02-17T04:13:42.832Z,101352.59
2023-02-17T04:18:44.860Z,101344.59
2023-02-17T04:23:46.697Z,101339.34
2023-02-17T04:28:48.758Z,101335.69
2023-02-17T04:33:50.506Z,101337.44
2023-02-17T04:38:55.466Z,101351.63
2023-02-17T04:43:57.367Z,101371.06
2023-02-17T04:48:59.162Z,101364.03
2023-02-17T04:54:00.949Z,101369.28
2023-02-17T04:59:02.881Z,101368.31
2023-02-17T05:04:04.921Z,101359.63
2023-02-17T05:09:06.766Z,101355.13
2023-02-17T05:14:09.005Z,101350.72
2023-02-17T05:19:11.283Z,101353.41
2023-02-17T05:24:13.061Z,101333.03
2023-02-17T05:29:14.956Z,101344.59
2023-02-17T05:34:16.907Z,101329.47
2023-02-17T05:39:18.720Z,101327.78
2023-02-17T05:44:21.010Z,101332.19
2023-02-17T05:49:22.882Z,101342.66
2023-02-17T05:54:24.777Z,101341.81
2023-02-17T05:59:26.840Z,101355.94
2023-02-17T06:04:28.794Z,101348.09
2023-02-17T06:09:30.683Z,101334.72
2023-02-17T06:14:32.691Z,101333.91
2023-02-17T06:19:34.484Z,101349.81
2023-02-17T06:24:36.277Z,101344.69
2023-02-17T06:29:38.144Z,101348.09
2023-02-17T06:34:39.916Z,101359.63
2023-02-17T06:39:41.705Z,101370.16
2023-02-17T06:44:43.550Z,101348.97
2023-02-17T06:49:45.443Z,101336.50
2023-02-17T06:54:47.980Z,101338.34
2023-02-17T06:59:49.970Z,101341.75
2023-02-17T07:04:51.958Z,101352.34
2023-02-17T07:09:53.899Z,101347.06
2023-02-17T07:14:56.185Z,101360.28
2023-02-17T07:19:58.130Z,101353.38
2023-02-17T07:25:00.227Z,101363.00
2023-02-17T07:30:02.314Z,101355.03
2023-02-17T07:35:04.279Z,101360.38
2023-02-17T07:40:06.885Z,101348.06
2023-02-17T07:45:08.828Z,101360.34
2023-02-17T07:50:10.893Z,101356.88
2023-02-17T07:55:12.930Z,101373.56
2023-02-17T08:00:15.480Z,101380.63
2023-02-17T08:05:17.420Z,101370.50
2023-02-17T08:10:37.742Z,101375.28
2023-02-17T08:15:39.674Z,101364.78
2023-02-17T08:20:41.700Z,101367.50
2023-02-17T08:25:43.536Z,101359.41
2023-02-17T08:30:45.531Z,101374.41
2023-02-17T08:35:47.960Z,101383.41
2023-02-17T08:40:49.825Z,101384.06
2023-02-17T08:45:51.979Z,101392.13
2023-02-17T08:50:54.313Z,101385.03
2023-02-17T08:55:56.419Z,101377.06
2023-02-17T09:00:58.399Z,101380.59
2023-02-17T09:06:00.466Z,101373.47
2023-02-17T09:11:02.647Z,101377.88
2023-02-17T09:16:05.526Z,101389.78
2023-02-17T09:21:10.211Z,101401.16
2023-02-17T09:26:14.670Z,101392.59
2023-02-17T09:31:22.665Z,101412.16
2023-02-17T09:36:28.347Z,101390.22
2023-02-17T09:41:48.043Z,101381.34
2023-02-17T09:47:02.402Z,101387.13
2023-02-17T09:52:16.889Z,101388.28
2023-02-17T09:57:22.103Z,101380.91
2023-02-17T10:02:29.560Z,101373.91
2023-02-17T10:07:42.259Z,101369.63
2023-02-17T10:12:52.428Z,101376.47
2023-02-17T10:18:02.928Z,101380.97
2023-02-17T10:23:10.828Z,101385.41
2023-02-17T10:28:26.671Z,101391.75
2023-02-17T10:34:03.546Z,101390.00
2023-02-17T10:39:25.039Z,101420.13
2023-02-17T10:44:27.051Z,101404.25
2023-02-17T10:49:37.228Z,101405.94
2023-02-17T10:54:54.600Z,101399.59
2023-02-17T10:59:57.573Z,101433.31
2023-02-17T11:05:00.526Z,101435.84
2023-02-17T11:10:19.803Z,101441.25
2023-02-17T11:15:25.870Z,101422.56
2023-02-17T11:20:34.198Z,101408.31
2023-02-17T11:25:38.179Z,101404.00
2023-02-17T11:30:49.128Z,101402.16
2023-02-17T11:35:54.568Z,101390.63
2023-02-17T11:41:04.902Z,101382.81
2023-02-17T11:46:39.256Z,101377.38
2023-02-17T11:52:08.622Z,101385.28
2023-02-17T11:57:29.043Z,101384.59
2023-02-17T12:03:05.197Z,101379.22
2023-02-17T12:08:24.237Z,101373.97
2023-02-17T12:13:45.794Z,101375.69
2023-02-17T12:19:02.123Z,101357.91
2023-02-17T12:24:22.201Z,101349.06
2023-02-17T12:30:07.866Z,101340.34
2023-02-17T12:35:56.405Z,101347.34
2023-02-17T12:41:15.396Z,101358.72
2023-02-17T12:46:22.821Z,101349.06
2023-02-17T12:51:50.806Z,101349.78
2023-02-17T12:57:14.866Z,101365.88
2023-02-17T13:02:22.624Z,101371.97
2023-02-17T13:07:27.450Z,101366.66
2023-02-17T13:12:29.343Z,101352.44
2023-02-17T13:17:53.496Z,101366.38
2023-02-17T13:23:08.066Z,101360.34
2023-02-17T13:28:19.132Z,101375.22
2023-02-17T13:33:20.934Z,101389.47
2023-02-17T13:38:29.984Z,101408.13
2023-02-17T13:43:41.150Z,101394.78
2023-02-17T13:48:43.038Z,101405.41
2023-02-17T13:53:51.971Z,101397.50
2023-02-17T13:58:54.183Z,101421.31
2023-02-17T14:03:56.978Z,101392.13
2023-02-17T14:08:59.039Z,101417.63
2023-02-17T14:14:02.367Z,101425.56
2023-02-17T14:19:08.015Z,101416.00
2023-02-17T14:24:25.868Z,101442.50
2023-02-17T14:29:42.423Z,101440.84
2023-02-17T14:34:44.590Z,101448.59
2023-02-17T14:39:46.365Z,101454.88
2023-02-17T14:44:48.234Z,101478.78
2023-02-17T14:49:50.240Z,101501.88
2023-02-17T14:54:52.520Z,101504.56
2023-02-17T14:59:57.949Z,101508.84
2023-02-17T15:05:00.035Z,101518.44
2023-02-17T15:10:02.362Z,101523.84
2023-02-17T15:15:04.367Z,101508.88
2023-02-17T15:20:06.899Z,101511.19
2023-02-17T15:25:13.234Z,101509.31
2023-02-17T15:30:20.487Z,101529.53
2023-02-17T15:35:25.000Z,101517.91
2023-02-17T15:40:28.855Z,101526.78
2023-02-17T15:45:31.158Z,101533.94
2023-02-17T15:50:32.981Z,101544.91
2023-02-17T15:55:35.083Z,101566.88
2023-02-17T16:00:36.867Z,101570.53
2023-02-17T16:05:38.954Z,101571.38
2023-02-17T16:10:42.762Z,101567.72
2023-02-17T16:15:45.214Z,101572.00
2023-02-17T16:20:47.604Z,101579.91
2023-02-17T16:25:50.713Z,101573.66
2023-02-17T16:30:52.669Z,101576.16
2023-02-17T16:35:54.723Z,101597.69
2023-02-17T16:40:56.665Z,101586.28
2023-02-17T16:46:01.544Z,101603.28
2023-02-17T16:51:03.580Z,101590.13
2023-02-17T16:56:28.798Z,101603.50
2023-02-17T17:01:30.697Z,101629.03
2023-02-17T17:06:32.714Z,101630.66
2023-02-17T17:11:34.692Z,101628.00
2023-02-17T17:16:37.223Z,101613.81
2023-02-17T17:21:39.074Z,101621.03
2023-02-17T17:26:46.552Z,101628.22
2023-02-17T17:31:48.530Z,101644.72
2023-02-17T17:36:50.458Z,101654.72
2023-02-17T17:41:52.422Z,101641.25
2023-02-17T17:46:54.728Z,101659.06
2023-02-17T17:51:56.749Z,101665.19
2023-02-17T17:56:58.734Z,101656.34
2023-02-17T18:02:00.524Z,101668.63
2023-02-17T18:07:02.506Z,101678.47
2023-02-17T18:12:14.341Z,101676.81
2023-02-17T18:17:18.410Z,101676.63
2023-02-17T18:22:20.380Z,101685.53
2023-02-17T18:27:23.281Z,101699.72
2023-02-17T18:32:25.322Z,101720.09
2023-02-17T18:37:27.506Z,101731.59
2023-02-17T18:42:29.318Z,101739.53
2023-02-17T18:47:31.985Z,101746.69
2023-02-17T18:52:33.969Z,101737.03
2023-02-17T18:57:36.891Z,101751.13
2023-02-17T19:02:40.498Z,101754.63
2023-02-17T19:07:43.116Z,101759.91
2023-02-17T19:12:45.042Z,101758.22
2023-02-17T19:17:49.009Z,101758.25
2023-02-17T19:22:51.042Z,101755.56
2023-02-17T19:27:53.172Z,101767.03
2023-02-17T19:32:55.056Z,101767.03
2023-02-17T19:37:56.955Z,101771.53
2023-02-17T19:42:59.097Z,101770.59
2023-02-17T19:48:01.248Z,101773.34
2023-02-17T19:53:03.277Z,101776.88
2023-02-17T19:58:05.781Z,101768.88
2023-02-17T20:03:07.913Z,101768.00
2023-02-17T20:08:09.984Z,101780.34
2023-02-17T20:13:11.846Z,101769.72
2023-02-17T20:18:13.994Z,101771.53
2023-02-17T20:23:16.346Z,101769.06
2023-02-17T20:28:18.696Z,101782.19
2023-02-17T20:33:20.850Z,101787.50
2023-02-17T20:38:23.027Z,101797.25
2023-02-17T20:43:25.349Z,101790.19
2023-02-17T20:48:28.229Z,101798.09
2023-02-17T20:53:30.263Z,101787.34
2023-02-17T20:58:32.802Z,101794.50
2023-02-17T21:03:34.942Z,101804.47
2023-02-17T21:08:36.907Z,101800.97
2023-02-17T21:13:38.736Z,101800.66
2023-02-17T21:18:40.827Z,101801.53
2023-02-17T21:23:43.093Z,101798.06
2023-02-17T21:28:46.457Z,101803.44
2023-02-17T21:33:48.694Z,101798.91
2023-02-17T21:38:50.923Z,101811.50
2023-02-17T21:44:11.551Z,101802.75
2023-02-17T21:49:13.920Z,101804.47
2023-02-17T21:54:16.221Z,101814.28
2023-02-17T21:59:18.903Z,101794.03
2023-02-17T22:04:21.186Z,101797.59
2023-02-17T22:09:23.248Z,101804.59
2023-02-17T22:14:25.052Z,101796.06
2023-02-17T22:19:29.801Z,101781.03
2023-02-17T22:24:33.290Z,101773.03
2023-02-17T22:29:35.057Z,101779.31
2023-02-17T22:34:37.162Z,101783.78
2023-02-17T22:39:38.997Z,101776.66
2023-02-17T22:44:40.902Z,101771.34
2023-02-17T22:49:43.308Z,101766.09
2023-02-17T22:54:45.098Z,101774.91
2023-02-17T22:59:47.145Z,101780.31
2023-02-17T23:04:49.292Z,101771.34
2023-02-17T23:09:51.314Z,101759.06
2023-02-17T23:14:53.315Z,101758.97
2023-02-17T23:19:55.362Z,101765.94
2023-02-17T23:24:57.338Z,101758.22
2023-02-17T23:29:59.181Z,101756.31
2023-02-17T23:35:01.176Z,101744.84
2023-02-17T23:40:04.093Z,101739.63
2023-02-17T23:45:06.357Z,101752.97
2023-02-17T23:50:08.900Z,101752.00
2023-02-17T23:55:10.915Z,101733.25
